Time;durP1;ratioP1;P1;durP2;ratioP2;P2;SDS_P1;SDS_P2;PMS_P1;PMS_P2;Temp;Humidity;BMP_temperature;BMP_pressure;BME280_temperature;BME280_humidity;BME280_pressure;Samples;Min_cycle;Max_cycle;Signal;HPM_P1;HPM_P2
2021/12/24 00:00:39;;;;;;;82.72;55.22;;;;;;;5.78;100.00;100482.59;5010687;28;20038;-65
2021/12/24 00:03:05;;;;;;;83.45;55.50;;;;;;;5.81;100.00;100481.56;5000404;28;20481;-64
2021/12/24 00:05:32;;;;;;;78.32;54.72;;;;;;;5.80;100.00;100480.75;4979887;28;20059;-65
2021/12/24 00:07:58;;;;;;;78.32;53.03;;;;;;;5.86;100.00;100482.91;4982333;28;20034;-64
2021/12/24 00:10:24;;;;;;;75.97;53.72;;;;;;;5.84;100.00;100482.19;4975669;28;20045;-64
2021/12/24 00:12:57;;;;;;;76.65;53.50;;;;;;;5.91;100.00;100476.63;4991257;28;20026;-64
2021/12/24 00:15:49;;;;;;;75.45;54.55;;;;;;;5.92;100.00;100474.00;4962037;28;20023;-65
2021/12/24 00:18:24;;;;;;;74.50;53.42;;;;;;;5.93;100.00;100488.50;4971192;28;20062;-65
2021/12/24 00:22:07;;;;;;;72.72;53.17;;;;;;;5.95;100.00;100475.50;4978846;28;20467;-64
2021/12/24 00:37:31;;;;;;;62.10;50.33;;;;;;;6.02;100.00;100456.16;4976257;28;20161;-65
2021/12/24 00:42:25;;;;;;;64.32;51.70;;;;;;;6.03;100.00;100450.91;4989441;28;20030;-66
2021/12/24 00:44:50;;;;;;;62.10;50.92;;;;;;;6.08;100.00;100460.91;4979000;28;20035;-64
2021/12/24 00:47:15;;;;;;;64.57;51.10;;;;;;;6.07;100.00;100451.50;4974423;28;20113;-65
2021/12/24 00:49:42;;;;;;;61.72;50.55;;;;;;;6.10;100.00;100461.63;4975120;28;20542;-64
2021/12/24 00:52:20;;;;;;;62.78;52.55;;;;;;;6.10;100.00;100456.47;4983793;28;20022;-64
2021/12/24 00:55:05;;;;;;;70.65;56.35;;;;;;;6.12;100.00;100449.44;4970989;28;20030;-64
2021/12/24 00:57:35;;;;;;;65.85;53.80;;;;;;;6.15;100.00;100448.44;4976808;28;20488;-64
2021/12/24 01:00:08;;;;;;;65.00;53.38;;;;;;;6.17;100.00;100444.81;4984803;28;20589;-64
2021/12/24 01:02:33;;;;;;;63.08;53.25;;;;;;;6.18;100.00;100450.78;4974822;28;20122;-64
2021/12/24 01:04:59;;;;;;;62.15;53.47;;;;;;;6.16;100.00;100440.59;4981051;28;20833;-64
2021/12/24 01:07:24;;;;;;;59.42;51.17;;;;;;;6.21;100.00;100443.66;4966912;28;20027;-64
2021/12/24 01:09:50;;;;;;;63.28;51.72;;;;;;;6.22;100.00;100442.72;4967276;28;20685;-64
2021/12/24 01:12:15;;;;;;;63.30;53.60;;;;;;;6.24;100.00;100448.59;4991060;28;20069;-64
2021/12/24 01:14:41;;;;;;;66.30;54.72;;;;;;;6.24;100.00;100448.59;4965077;28;20031;-64
2021/12/24 01:17:29;;;;;;;63.78;53.92;;;;;;;6.25;100.00;100445.09;4974645;28;20034;-65
2021/12/24 01:19:57;;;;;;;65.20;54.65;;;;;;;6.26;100.00;100441.59;4990322;28;20145;-64
2021/12/24 01:37:49;;;;;;;69.18;58.03;;;;;;;6.35;100.00;100435.78;4989349;28;20100;-65
2021/12/24 01:41:18;;;;;;;77.22;60.10;;;;;;;6.45;100.00;100432.56;4973232;28;20034;-63
2021/12/24 01:43:44;;;;;;;81.22;62.67;;;;;;;6.46;100.00;100437.63;4983328;28;20034;-64
2021/12/24 01:46:09;;;;;;;78.05;61.42;;;;;;;6.50;100.00;100438.22;4978547;28;20027;-64
2021/12/24 01:48:34;;;;;;;83.90;64.70;;;;;;;6.53;100.00;100443.16;4985303;28;20455;-65
2021/12/24 01:51:00;;;;;;;86.50;63.15;;;;;;;6.54;100.00;100442.25;4984943;28;20062;-64
2021/12/24 01:53:25;;;;;;;91.47;64.90;;;;;;;6.58;100.00;100441.06;4988146;28;20522;-64
2021/12/24 01:55:52;;;;;;;92.45;66.30;;;;;;;6.62;100.00;100430.44;4989083;28;20042;-64
2021/12/24 01:58:20;;;;;;;100.05;66.13;;;;;;;6.67;100.00;100434.47;4978166;28;20069;-64
2021/12/24 02:00:49;;;;;;;87.60;65.03;;;;;;;6.64;100.00;100435.47;4988488;28;20617;-64
2021/12/24 02:03:14;;;;;;;92.45;65.78;;;;;;;6.69;100.00;100438.56;4982494;28;20026;-64
2021/12/24 02:05:41;;;;;;;98.45;66.53;;;;;;;6.71;100.00;100430.72;4973515;28;20097;-64
2021/12/24 02:08:08;;;;;;;104.10;67.97;;;;;;;6.78;100.00;100432.75;4987274;28;20041;-65
2021/12/24 02:10:33;;;;;;;103.38;69.78;;;;;;;6.81;100.00;100427.38;5001828;28;20466;-65
2021/12/24 02:12:59;;;;;;;105.55;69.93;;;;;;;6.85;100.00;100431.38;4995031;28;20178;-65
2021/12/24 02:15:36;;;;;;;95.03;66.50;;;;;;;6.83;100.00;100428.09;4963877;28;20018;-64
2021/12/24 02:28:54;;;;;;;85.57;58.45;;;;;;;7.01;100.00;100430.28;4997547;28;20393;-64
2021/12/24 02:31:23;;;;;;;88.07;59.58;;;;;;;7.04;100.00;100432.59;5009329;28;20022;-65
2021/12/24 02:33:48;;;;;;;85.55;58.45;;;;;;;7.08;100.00;100431.47;4994665;28;20379;-64
2021/12/24 02:36:15;;;;;;;88.88;56.55;;;;;;;7.16;100.00;100431.72;4975211;28;20485;-64
2021/12/24 02:38:41;;;;;;;82.32;53.85;;;;;;;7.15;100.00;100430.06;5001822;28;20034;-64
2021/12/24 02:41:08;;;;;;;83.63;54.63;;;;;;;7.19;100.00;100431.50;5005871;28;20026;-65
2021/12/24 02:43:34;;;;;;;85.93;55.17;;;;;;;7.24;100.00;100434.56;5011281;28;20057;-64
2021/12/24 02:46:08;;;;;;;86.40;55.22;;;;;;;7.27;100.00;100434.31;5002258;28;20431;-64
2021/12/24 02:53:58;;;;;;;82.25;52.67;;;;;;;7.33;100.00;100428.69;4997776;28;20077;-64
2021/12/24 02:56:29;;;;;;;80.05;51.25;;;;;;;7.33;100.00;100420.97;5005874;28;20034;-64
2021/12/24 02:58:55;;;;;;;81.03;52.33;;;;;;;7.33;100.00;100413.22;5009210;28;20038;-65
2021/12/24 03:01:27;;;;;;;82.18;51.85;;;;;;;7.34;100.00;100411.47;4998786;28;20030;-65
2021/12/24 03:03:52;;;;;;;82.97;51.88;;;;;;;7.35;100.00;100411.38;4992427;28;20038;-65
2021/12/24 03:06:20;;;;;;;78.53;49.67;;;;;;;7.34;100.00;100409.72;4978045;28;20049;-65
2021/12/24 03:08:46;;;;;;;83.38;50.65;;;;;;;7.36;100.00;100407.84;5003368;28;20489;-64
2021/12/24 03:11:11;;;;;;;82.15;51.92;;;;;;;7.39;100.00;100406.78;5003894;28;20042;-65
2021/12/24 03:13:38;;;;;;;83.85;51.08;;;;;;;7.40;100.00;100404.13;4975414;28;20379;-65
2021/12/24 03:16:04;;;;;;;84.63;52.00;;;;;;;7.42;100.00;100412.53;4986577;28;20030;-65
2021/12/24 03:18:33;;;;;;;84.72;49.67;;;;;;;7.41;100.00;100415.25;4996944;28;20493;-64
2021/12/24 03:21:16;;;;;;;;;;;;;;;7.47;100.00;100403.66;5000401;28;20030;-65
2021/12/24 03:24:34;;;;;;;81.25;51.10;;;;;;;7.45;100.00;100409.75;4988979;28;19925;-65
2021/12/24 03:26:34;;;;;;;83.80;51.13;;;;;;;7.45;100.00;100416.66;4996679;28;20053;-64
2021/12/24 03:28:59;;;;;;;74.25;47.63;;;;;;;7.48;100.00;100420.78;4995953;28;20580;-65
2021/12/24 03:31:25;;;;;;;80.88;48.53;;;;;;;7.48;100.00;100416.44;4989139;28;20038;-65
2021/12/24 03:33:53;;;;;;;77.55;49.38;;;;;;;7.50;100.00;100418.88;4991527;28;20030;-64
2021/12/24 03:36:21;;;;;;;71.43;45.63;;;;;;;7.50;100.00;100424.03;4991423;28;20069;-64
2021/12/24 03:38:47;;;;;;;66.40;43.90;;;;;;;7.50;100.00;100413.72;4991275;28;20031;-65
2021/12/24 03:41:12;;;;;;;64.07;44.15;;;;;;;7.50;100.00;100424.03;4987002;28;20037;-64
2021/12/24 03:43:38;;;;;;;65.28;44.47;;;;;;;7.51;100.00;100425.69;4994062;28;20514;-64
2021/12/24 03:46:07;;;;;;;62.08;43.15;;;;;;;7.53;100.00;100429.00;4990403;28;20018;-65
2021/12/24 03:48:56;;;;;;;58.38;42.20;;;;;;;7.53;100.00;100418.66;4999763;28;20080;-65
2021/12/24 03:56:45;;;;;;;55.45;38.20;;;;;;;7.50;100.00;100424.03;4994064;28;20126;-65
2021/12/24 03:59:10;;;;;;;53.15;37.72;;;;;;;7.50;100.00;100430.03;5002190;28;20479;-65
2021/12/24 04:01:37;;;;;;;48.50;36.15;;;;;;;7.52;100.00;100428.16;4972479;28;20035;-65
2021/12/24 04:04:03;;;;;;;49.00;34.88;;;;;;;7.51;100.00;100425.69;4989134;28;20101;-65
2021/12/24 04:06:29;;;;;;;46.63;34.20;;;;;;;7.52;100.00;100432.50;4982540;28;20058;-65
2021/12/24 04:08:55;;;;;;;45.47;32.60;;;;;;;7.50;100.00;100418.88;5002191;28;20021;-65
2021/12/24 04:11:20;;;;;;;40.75;29.80;;;;;;;7.51;100.00;100410.19;4993144;28;20026;-64
2021/12/24 04:13:46;;;;;;;43.05;29.88;;;;;;;7.50;100.00;100429.22;5000958;28;20525;-64
2021/12/24 04:16:11;;;;;;;41.20;29.73;;;;;;;7.49;100.00;100425.00;4993432;28;20390;-65
2021/12/24 04:18:46;;;;;;;44.85;29.65;;;;;;;7.47;100.00;100419.13;4979139;28;20050;-65
2021/12/24 04:26:40;;;;;;;40.13;27.17;;;;;;;7.45;100.00;100432.97;4993818;28;20049;-65
2021/12/24 04:29:07;;;;;;;38.00;27.52;;;;;;;7.48;100.00;100436.25;4992003;28;20026;-66
2021/12/24 04:31:44;;;;;;;34.67;26.38;;;;;;;7.50;100.00;100434.38;4996839;28;20018;-65
2021/12/24 04:34:10;;;;;;;38.55;26.55;;;;;;;7.50;100.00;100445.50;4982107;28;20026;-65
2021/12/24 05:01:29;;;;;;;32.50;21.30;;;;;;;7.47;100.00;100416.56;4989228;28;20049;-66
2021/12/24 05:03:56;;;;;;;32.97;21.05;;;;;;;7.48;100.00;100428.50;4987759;28;20474;-66
2021/12/24 05:08:56;;;;;;;31.63;20.27;;;;;;;7.46;100.00;100433.78;4968635;28;20517;-66
2021/12/24 05:11:23;;;;;;;29.48;19.50;;;;;;;7.45;100.00;100427.81;4957452;28;20475;-67
2021/12/24 05:13:52;;;;;;;32.53;19.05;;;;;;;7.43;99.84;100434.81;4966534;28;20167;-66
2021/12/24 05:23:58;;;;;;;33.83;18.50;;;;;;;7.43;99.74;100431.44;4971400;28;20049;-66
2021/12/24 05:26:23;;;;;;;28.77;17.42;;;;;;;7.42;99.70;100435.78;4951467;28;20019;-66
2021/12/24 05:28:49;;;;;;;31.80;17.60;;;;;;;7.36;99.56;100427.66;4976080;28;20037;-66
2021/12/24 05:31:14;;;;;;;30.38;17.13;;;;;;;7.39;100.00;100435.97;4978576;28;20034;-66
2021/12/24 05:33:40;;;;;;;29.15;16.83;;;;;;;7.37;99.33;100435.28;4969418;28;20027;-65
2021/12/24 05:36:05;;;;;;;32.47;17.98;;;;;;;7.39;99.22;100433.41;4965033;28;20561;-67
2021/12/24 05:38:31;;;;;;;30.20;16.40;;;;;;;7.36;99.49;100436.22;4968384;28;20027;-66
2021/12/24 05:40:56;;;;;;;27.23;16.40;;;;;;;7.35;99.24;100426.84;4973217;28;20463;-66
2021/12/24 05:43:22;;;;;;;27.23;16.10;;;;;;;7.36;99.15;100433.66;4979452;28;20412;-66
2021/12/24 05:45:48;;;;;;;31.17;15.75;;;;;;;7.38;99.61;100451.59;4987431;28;20105;-65
2021/12/24 05:48:13;;;;;;;27.90;15.30;;;;;;;7.34;99.37;100445.84;4983340;28;20386;-66
2021/12/24 05:50:39;;;;;;;30.52;14.68;;;;;;;7.33;98.88;100446.75;4974137;28;20447;-66
2021/12/24 05:53:05;;;;;;;30.88;15.57;;;;;;;7.36;98.81;100454.28;4983663;28;20022;-66
2021/12/24 05:55:30;;;;;;;25.70;14.57;;;;;;;7.35;99.39;100452.66;4993215;28;20031;-66
2021/12/24 05:57:56;;;;;;;29.73;15.80;;;;;;;7.33;98.32;100454.50;4962666;28;20129;-65
2021/12/24 06:00:21;;;;;;;26.42;15.15;;;;;;;7.31;98.89;100446.06;4988785;28;20030;-65
2021/12/24 06:02:47;;;;;;;30.50;15.43;;;;;;;7.32;98.97;100458.03;4972655;28;20027;-65
2021/12/24 06:05:13;;;;;;;28.52;15.45;;;;;;;7.29;98.46;100450.53;4973031;28;20141;-66
2021/12/24 06:07:38;;;;;;;28.70;15.95;;;;;;;7.30;98.99;100454.75;4989003;28;20040;-65
2021/12/24 06:10:04;;;;;;;30.83;15.60;;;;;;;7.29;98.81;100453.09;4984681;28;20025;-66
2021/12/24 06:12:30;;;;;;;25.25;15.50;;;;;;;7.31;98.15;100458.97;4993711;28;20490;-66
2021/12/24 06:15:02;;;;;;;30.50;16.25;;;;;;;7.27;98.43;100465.28;4992025;28;20034;-65
2021/12/24 06:17:27;;;;;;;27.90;15.48;;;;;;;7.29;98.69;100468.59;4990194;28;20057;-67
2021/12/24 06:19:53;;;;;;;27.95;15.77;;;;;;;7.27;98.34;100449.78;4981499;28;20097;-66
2021/12/24 06:22:18;;;;;;;31.73;15.88;;;;;;;7.29;98.86;100462.59;4981376;28;20054;-66
2021/12/24 06:24:43;;;;;;;26.08;15.65;;;;;;;7.25;98.04;100454.25;4983964;28;20034;-66
2021/12/24 06:27:09;;;;;;;30.70;16.55;;;;;;;7.24;97.96;100454.38;4986068;28;20376;-65
2021/12/24 06:29:35;;;;;;;23.70;15.25;;;;;;;7.25;98.33;100464.56;5007052;28;20033;-66
2021/12/24 06:32:00;;;;;;;25.38;16.38;;;;;;;7.25;98.26;100464.56;4988244;28;20055;-66
2021/12/24 06:34:30;;;;;;;31.17;16.90;;;;;;;7.23;98.37;100469.03;4978553;28;20379;-66
2021/12/24 06:36:57;;;;;;;30.63;16.55;;;;;;;7.24;98.01;100460.34;4984383;28;20057;-67
2021/12/24 06:39:23;;;;;;;27.92;16.08;;;;;;;7.22;97.89;100462.19;4974303;28;20052;-66
2021/12/24 06:41:49;;;;;;;26.30;16.42;;;;;;;7.25;98.07;100467.16;4979951;28;20522;-67
2021/12/24 06:44:14;;;;;;;35.20;16.67;;;;;;;7.21;97.61;100458.00;4986809;28;20030;-65
2021/12/24 06:46:41;;;;;;;30.45;16.42;;;;;;;7.20;97.67;100458.94;4985267;28;20025;-67
2021/12/24 06:49:08;;;;;;;26.25;16.17;;;;;;;7.22;98.31;100462.19;5005067;28;20038;-66
2021/12/24 06:51:34;;;;;;;29.88;16.90;;;;;;;7.22;97.76;100454.47;4997671;28;20055;-66
2021/12/24 06:53:59;;;;;;;28.90;16.52;;;;;;;7.23;97.83;100456.13;5001877;28;20029;-66
2021/12/24 06:56:25;;;;;;;31.25;16.33;;;;;;;7.19;97.96;100447.78;4996980;28;20044;-65
2021/12/24 06:58:50;;;;;;;29.58;16.67;;;;;;;7.23;97.92;100461.28;4991333;28;20038;-65
2021/12/24 07:01:16;;;;;;;30.52;17.02;;;;;;;7.21;98.21;100455.41;4993440;28;20363;-67
2021/12/24 07:03:41;;;;;;;30.90;17.73;;;;;;;7.22;97.84;100458.81;4991667;28;20038;-65
2021/12/24 07:06:08;;;;;;;25.00;15.95;;;;;;;7.20;97.79;100458.94;4994532;28;20073;-65
2021/12/24 07:08:34;;;;;;;30.25;17.73;;;;;;;7.22;97.63;100458.81;4990792;28;20037;-66
2021/12/24 07:10:59;;;;;;;26.02;16.52;;;;;;;7.22;97.86;100445.91;4984896;28;20022;-64
2021/12/24 07:13:25;;;;;;;27.48;16.50;;;;;;;7.23;97.46;100450.97;4977279;28;20031;-66
2021/12/24 07:15:51;;;;;;;31.85;16.83;;;;;;;7.22;97.59;100446.72;4990943;28;20117;-65
2021/12/24 07:18:16;;;;;;;27.77;18.25;;;;;;;7.20;97.69;100448.59;4985961;28;20033;-65
2021/12/24 07:20:42;;;;;;;33.90;17.83;;;;;;;7.20;97.32;100456.34;4977781;28;20034;-65
2021/12/24 07:23:08;;;;;;;29.50;16.98;;;;;;;7.20;97.60;100456.34;4991426;28;20032;-64
2021/12/24 07:25:33;;;;;;;29.95;16.58;;;;;;;7.19;97.89;100465.03;5000107;28;20030;-65
2021/12/24 07:28:00;;;;;;;27.88;17.15;;;;;;;7.20;97.75;100466.66;4986907;28;20033;-64
2021/12/24 07:30:27;;;;;;;28.02;16.70;;;;;;;7.18;97.62;100468.53;4985199;28;20530;-64
2021/12/24 07:32:52;;;;;;;27.52;15.90;;;;;;;7.18;97.80;100471.94;4984468;28;20065;-64
2021/12/24 07:35:18;;;;;;;31.38;16.15;;;;;;;7.23;97.26;100478.53;4972749;28;20117;-64
2021/12/24 07:37:44;;;;;;;29.92;17.05;;;;;;;7.20;97.19;100474.41;4989374;28;20125;-64
2021/12/24 07:40:12;;;;;;;24.67;16.67;;;;;;;7.21;97.28;100470.88;5001799;28;20034;-64
2021/12/24 07:42:38;;;;;;;27.48;16.52;;;;;;;7.22;97.14;100472.53;5006357;28;20065;-64
2021/12/24 07:45:05;;;;;;;26.92;16.75;;;;;;;7.22;96.97;100464.78;5010762;28;20026;-64
2021/12/24 07:47:36;;;;;;;26.63;16.42;;;;;;;7.20;96.92;100464.09;4998140;28;20117;-64
2021/12/24 07:50:15;;;;;;;30.33;17.75;;;;;;;7.22;97.08;100466.53;5007644;28;20042;-64
2021/12/24 07:52:41;;;;;;;31.38;16.60;;;;;;;7.17;96.57;100464.31;5006047;28;20030;-64
2021/12/24 07:55:09;;;;;;;28.20;16.80;;;;;;;7.21;96.40;100473.47;4999273;28;20390;-65
2021/12/24 07:57:35;;;;;;;29.58;16.88;;;;;;;7.21;96.87;100470.88;4995859;28;20116;-64
2021/12/24 08:00:00;;;;;;;29.25;17.35;;;;;;;7.18;97.06;100471.13;4980991;28;20023;-65
2021/12/24 08:02:28;;;;;;;28.77;16.02;;;;;;;7.16;96.95;100471.22;4984058;28;20073;-65
2021/12/24 08:04:53;;;;;;;27.17;15.73;;;;;;;7.19;96.84;100472.75;4964286;28;20495;-64
2021/12/24 08:07:20;;;;;;;27.17;14.63;;;;;;;7.20;96.54;100466.66;4989620;28;20018;-65
2021/12/24 08:09:47;;;;;;;28.75;14.75;;;;;;;7.21;96.93;100476.03;4959340;28;20121;-66
2021/12/24 08:12:12;;;;;;;29.20;15.45;;;;;;;7.20;96.74;100464.09;4970979;28;20532;-65
2021/12/24 08:14:38;;;;;;;25.60;14.50;;;;;;;7.22;97.09;100472.53;4972950;28;20023;-64
2021/12/24 08:17:04;;;;;;;25.73;14.35;;;;;;;7.21;96.58;100468.31;4954947;28;20037;-64
2021/12/24 08:19:30;;;;;;;26.25;15.13;;;;;;;7.22;96.87;100477.69;4970316;28;20502;-64
2021/12/24 08:21:57;;;;;;;26.77;15.65;;;;;;;7.24;95.99;100469.84;4959874;28;20022;-64
2021/12/24 08:24:22;;;;;;;30.63;16.10;;;;;;;7.22;96.38;100461.38;4975758;28;20180;-64
2021/12/24 08:26:48;;;;;;;30.02;16.83;;;;;;;7.22;95.98;100458.81;4978199;28;20493;-64
2021/12/24 08:29:14;;;;;;;28.73;15.82;;;;;;;7.25;96.75;100454.25;4965295;28;20531;-63
2021/12/24 08:31:39;;;;;;;28.85;16.70;;;;;;;7.23;96.35;100448.41;4977250;28;20378;-64
2021/12/24 08:34:05;;;;;;;29.25;16.42;;;;;;;7.24;96.10;100455.19;4984499;28;20027;-63
2021/12/24 08:36:32;;;;;;;27.08;16.38;;;;;;;7.25;95.97;100462.00;4960132;28;20126;-64
2021/12/24 08:38:58;;;;;;;28.48;16.02;;;;;;;7.25;96.21;100459.41;4984369;28;20038;-64
2021/12/24 08:41:24;;;;;;;32.40;16.05;;;;;;;7.28;95.86;100469.50;4973303;28;20023;-64
2021/12/24 08:43:49;;;;;;;29.70;15.98;;;;;;;7.25;96.22;100472.31;4951440;28;20482;-65
2021/12/24 08:46:14;;;;;;;25.95;15.25;;;;;;;7.24;96.44;100475.84;4971016;28;20054;-65
2021/12/24 08:48:40;;;;;;;33.17;15.52;;;;;;;7.25;95.93;100466.34;4941276;28;20034;-65
2021/12/24 08:51:05;;;;;;;28.27;14.77;;;;;;;7.26;96.05;100460.22;4975088;28;20503;-64
2021/12/24 08:53:31;;;;;;;28.67;15.25;;;;;;;7.25;95.76;100459.41;4963570;28;20358;-64
2021/12/24 08:55:56;;;;;;;26.77;15.05;;;;;;;7.25;96.48;100456.00;4966847;28;20031;-64
2021/12/24 08:58:21;;;;;;;30.00;15.88;;;;;;;7.25;96.09;100449.09;4967688;28;20511;-63
2021/12/24 09:00:47;;;;;;;27.75;14.32;;;;;;;7.27;95.98;100457.53;4971656;28;20019;-64
2021/12/24 09:03:12;;;;;;;26.00;15.93;;;;;;;7.29;95.63;100463.41;4968119;28;20042;-65
2021/12/24 09:05:38;;;;;;;25.60;15.15;;;;;;;7.29;95.90;100453.09;4985248;28;20374;-64
2021/12/24 09:08:04;;;;;;;30.35;15.68;;;;;;;7.31;96.08;100466.69;4976675;28;20023;-64
2021/12/24 09:10:29;;;;;;;32.38;14.90;;;;;;;7.33;95.84;100448.53;4994698;28;20019;-63
2021/12/24 09:12:55;;;;;;;29.48;15.50;;;;;;;7.32;95.74;100455.44;4986478;28;20461;-63
2021/12/24 09:15:27;;;;;;;29.13;15.57;;;;;;;7.34;96.14;100448.44;4999454;28;20018;-63
2021/12/24 09:17:53;;;;;;;26.92;15.00;;;;;;;7.30;95.69;100446.19;4982278;28;20026;-64
2021/12/24 09:20:25;;;;;;;29.67;15.23;;;;;;;7.36;96.13;100453.47;4982398;28;20042;-63
2021/12/24 09:22:51;;;;;;;30.02;16.00;;;;;;;7.36;95.58;100459.44;4984653;28;20026;-69
2021/12/24 09:25:17;;;;;;;27.02;15.45;;;;;;;7.37;96.06;100466.25;4981507;28;20046;-64
2021/12/24 09:27:43;;;;;;;30.02;15.55;;;;;;;7.36;95.93;100467.19;4984592;28;20070;-63
2021/12/24 09:30:09;;;;;;;29.27;15.38;;;;;;;7.36;95.95;100458.63;4974025;28;20470;-65
2021/12/24 09:32:34;;;;;;;26.83;15.52;;;;;;;7.35;96.23;100452.66;4990604;28;20038;-64
2021/12/24 09:35:00;;;;;;;30.27;16.20;;;;;;;7.37;95.86;100458.50;4991158;28;20455;-71
2021/12/24 09:37:25;;;;;;;31.45;15.00;;;;;;;7.37;95.67;100450.75;4975323;28;20031;-74
2021/12/24 09:40:25;;;;;;;26.20;15.32;;;;;;;7.40;96.24;100455.72;4978294;28;20058;-65
2021/12/24 09:42:51;;;;;;;28.50;14.88;;;;;;;7.38;95.72;100452.41;5184643;23;20108;-69
2021/12/24 09:45:17;;;;;;;31.02;15.50;;;;;;;7.40;95.46;100457.47;5013392;28;20042;-66
2021/12/24 10:06:34;;;;;;;27.55;14.23;;;;;;;7.29;95.40;100422.16;4440493;23;20056;-78
2021/12/24 10:16:48;;;;;;;29.50;15.45;;;;;;;7.35;95.40;100421.69;4912535;29;19919;-76
2021/12/24 10:28:51;;;;;;;30.13;17.20;;;;;;;7.56;94.84;100455.38;4987211;28;20058;-64
2021/12/24 10:31:21;;;;;;;36.67;17.20;;;;;;;7.56;94.73;100446.81;4986161;28;20060;-64
2021/12/24 10:34:25;;;;;;;30.33;17.58;;;;;;;7.61;95.23;100442.94;4990309;28;20057;-64
2021/12/24 10:36:58;;;;;;;32.67;18.05;;;;;;;7.62;94.99;100443.75;4982165;28;20046;-64
2021/12/24 10:39:44;;;;;;;32.97;18.05;;;;;;;7.67;95.52;100436.50;4990316;28;20484;-64
2021/12/24 10:42:39;;;;;;;31.88;17.80;;;;;;;7.68;95.26;100436.41;4989674;28;20054;-64
2021/12/24 10:45:15;;;;;;;31.88;17.33;;;;;;;7.67;94.95;100439.09;4987048;28;20034;-64
2021/12/24 10:47:42;;;;;;;30.98;17.67;;;;;;;7.67;94.72;100439.09;4987349;28;20026;-64
2021/12/24 10:50:38;;;;;;;32.70;17.75;;;;;;;7.67;95.29;100433.91;4965981;28;20045;-63
2021/12/24 10:55:45;;;;;;;31.00;18.38;;;;;;;7.71;95.32;100432.75;4991426;28;20517;-64
2021/12/24 10:58:18;;;;;;;31.05;17.45;;;;;;;7.68;94.82;100435.56;4973825;28;20026;-65
2021/12/24 11:01:01;;;;;;;31.60;17.20;;;;;;;7.72;94.85;100436.97;4974544;28;20038;-63
2021/12/24 11:03:32;;;;;;;31.77;18.48;;;;;;;7.70;94.85;100436.28;4976480;28;20031;-64
2021/12/24 11:06:06;;;;;;;32.35;17.40;;;;;;;7.70;94.35;100436.28;4990353;28;20034;-65
2021/12/24 11:08:32;;;;;;;32.55;17.55;;;;;;;7.68;94.17;100427.81;4978685;28;20081;-65
2021/12/24 11:10:59;;;;;;;28.92;17.17;;;;;;;7.69;94.45;100435.47;4969136;28;20041;-64
2021/12/24 11:13:29;;;;;;;29.57;18.43;;;;;;;7.71;94.61;100435.34;4976503;28;20022;-63
2021/12/24 11:15:57;;;;;;;31.45;17.33;;;;;;;7.67;94.41;100426.19;4987560;28;20137;-64
2021/12/24 11:18:25;;;;;;;30.90;17.73;;;;;;;7.70;94.12;100436.28;4967432;28;20026;-63
2021/12/24 11:20:53;;;;;;;30.52;18.02;;;;;;;7.71;94.73;100432.75;4983416;28;20034;-64
2021/12/24 11:23:20;;;;;;;29.07;18.37;;;;;;;7.72;94.58;100434.41;4987495;28;20034;-64
2021/12/24 11:25:54;;;;;;;30.58;17.95;;;;;;;7.71;94.06;100437.91;4983184;28;20026;-64
2021/12/24 11:28:22;;;;;;;34.63;18.15;;;;;;;7.70;93.83;100431.13;4983347;28;20061;-65
2021/12/24 11:30:52;;;;;;;30.40;17.67;;;;;;;7.69;94.05;100425.13;4990009;28;20065;-64
2021/12/24 11:33:24;;;;;;;34.13;18.38;;;;;;;7.73;94.25;100430.88;5010467;28;20386;-65
2021/12/24 11:51:52;;;;;;;33.08;18.95;;;;;;;7.89;93.86;100425.38;5175330;23;20058;-64
2021/12/24 11:55:08;;;;;;;33.38;18.60;;;;;;;7.93;93.74;100425.03;4969420;28;20093;-64
2021/12/24 12:00:21;;;;;;;29.77;18.10;;;;;;;7.93;93.50;100421.63;5000846;28;20552;-66
2021/12/24 12:02:46;;;;;;;34.35;19.40;;;;;;;7.96;93.72;100413.63;4997052;28;20046;-66
2021/12/24 12:05:34;;;;;;;30.50;18.60;;;;;;;8.00;93.48;100412.44;5002078;28;20022;-66
2021/12/24 12:10:49;;;;;;;34.55;20.00;;;;;;;8.03;93.29;100417.41;5008649;28;20038;-66
2021/12/24 12:13:40;;;;;;;35.85;19.90;;;;;;;8.04;93.40;100415.63;5008271;28;20389;-67
2021/12/24 12:16:08;;;;;;;33.70;19.08;;;;;;;8.04;93.49;100413.88;4989894;28;20440;-66
2021/12/24 12:18:44;;;;;;;32.17;19.10;;;;;;;8.05;93.14;100406.94;5013917;28;20662;-66
2021/12/24 12:21:35;;;;;;;30.58;19.50;;;;;;;8.04;93.09;100405.31;5014682;28;20033;-67
2021/12/24 12:26:45;;;;;;;32.75;19.63;;;;;;;8.11;92.68;100403.88;5015322;28;20041;-67
2021/12/24 12:29:42;;;;;;;33.05;19.35;;;;;;;8.11;92.57;100412.44;5004629;28;20034;-66
2021/12/24 12:32:13;;;;;;;30.13;19.27;;;;;;;8.10;93.11;100410.00;5015108;28;20022;-66
2021/12/24 12:34:38;;;;;;;30.65;18.85;;;;;;;8.12;92.64;100405.50;5009422;28;20112;-66
2021/12/24 12:37:26;;;;;;;31.63;19.73;;;;;;;8.14;92.72;100406.19;4983980;28;20113;-66
2021/12/24 12:39:55;;;;;;;36.85;18.77;;;;;;;8.10;92.81;100402.25;5004605;28;20034;-66
2021/12/24 12:43:00;;;;;;;30.80;19.15;;;;;;;8.19;93.18;100406.66;5013492;28;20037;-66
2021/12/24 12:45:38;;;;;;;30.60;19.15;;;;;;;8.15;92.61;100405.28;4953546;29;20035;-66
2021/12/24 12:48:07;;;;;;;32.17;19.08;;;;;;;8.15;92.35;100410.47;5006995;28;20172;-66
2021/12/24 12:50:34;;;;;;;28.05;18.63;;;;;;;8.17;92.45;100408.56;4995872;28;20033;-66
2021/12/24 12:59:03;;;;;;;35.78;18.92;;;;;;;8.19;92.72;100417.00;4991664;28;20101;-66
2021/12/24 13:01:29;;;;;;;31.53;17.17;;;;;;;8.18;92.36;100407.63;4987883;28;20141;-66
2021/12/24 13:04:11;;;;;;;34.45;18.70;;;;;;;8.18;92.37;100405.03;5005662;28;20524;-66
2021/12/24 13:15:00;;;;;;;30.23;17.58;;;;;;;8.11;92.23;100399.53;4973150;28;20049;-66
2021/12/24 13:17:32;;;;;;;29.83;17.65;;;;;;;8.12;92.54;100395.19;4973205;28;20105;-66
2021/12/24 13:20:10;;;;;;;29.90;17.95;;;;;;;8.11;92.85;100388.38;4973525;28;20096;-66
2021/12/24 13:22:37;;;;;;;31.85;18.05;;;;;;;8.10;92.86;100391.91;4973327;28;20030;-66
2021/12/24 13:25:13;;;;;;;33.55;19.00;;;;;;;8.10;93.23;100391.91;4974275;28;20070;-66
2021/12/24 13:27:47;;;;;;;33.63;18.13;;;;;;;8.09;93.53;100393.66;4974466;28;20034;-66
2021/12/24 13:30:20;;;;;;;32.25;17.77;;;;;;;8.10;93.32;100389.31;4951967;28;20026;-66
2021/12/24 13:32:48;;;;;;;30.88;17.75;;;;;;;8.08;93.36;100388.59;4942638;29;20082;-67
2021/12/24 13:35:25;;;;;;;32.17;17.98;;;;;;;8.09;93.26;100395.44;4971110;28;20073;-67
2021/12/24 13:37:54;;;;;;;33.78;18.30;;;;;;;8.08;93.29;100396.34;4967361;28;20039;-67
2021/12/24 13:40:27;;;;;;;31.65;18.08;;;;;;;8.09;92.98;100390.28;4973954;28;20054;-67
2021/12/24 13:42:56;;;;;;;33.13;18.00;;;;;;;8.10;93.59;100391.91;4956723;28;20039;-68
2021/12/24 13:45:23;;;;;;;28.83;18.73;;;;;;;8.10;93.19;100386.75;4958809;28;20030;-68
2021/12/24 13:48:06;;;;;;;30.50;19.13;;;;;;;8.08;93.30;100383.44;4973357;28;20045;-68
2021/12/24 13:56:15;;;;;;;30.30;18.98;;;;;;;8.09;93.31;100388.50;4974751;28;20509;-67
2021/12/24 13:58:48;;;;;;;30.20;18.13;;;;;;;8.10;93.05;100382.41;4964595;28;20027;-66
2021/12/24 14:01:14;;;;;;;34.65;18.23;;;;;;;8.07;93.18;100384.38;4973948;28;20030;-66
2021/12/24 14:03:39;;;;;;;30.30;17.88;;;;;;;8.08;93.04;100384.25;4973539;28;20046;-66
2021/12/24 14:06:05;;;;;;;31.92;18.48;;;;;;;8.07;92.55;100386.97;4971173;28;20027;-67
2021/12/24 14:08:36;;;;;;;32.33;18.23;;;;;;;8.05;93.18;100391.44;4954737;28;20564;-67
2021/12/24 14:11:07;;;;;;;31.83;19.23;;;;;;;8.06;92.83;100390.50;4967452;28;20034;-66
2021/12/24 14:13:38;;;;;;;31.02;18.52;;;;;;;8.03;92.50;100390.72;4971871;28;20035;-67
2021/12/24 14:16:12;;;;;;;27.02;18.33;;;;;;;8.02;92.46;100394.25;4944476;28;20385;-67
2021/12/24 14:18:47;;;;;;;30.23;18.63;;;;;;;8.01;92.65;100392.63;4957605;28;20027;-67
2021/12/24 14:24:27;;;;;;;30.02;17.70;;;;;;;8.03;93.26;100388.13;4972478;28;20042;-69